Aeroboteco Virtual Airlines! Uma nuvem a frente.



 INFORMAÇÕES METEOROLÓGICAS
METAR FOR HESN
ADDS - METARS form results

(0616 UTC 28 October 2020)
Data provider http://aviationweather.gov/metar/data/
 
Forecast for: HESN (ASWAN (CIV/MIL) , EG)
Text: TAF HESN 280500Z 2806/2912 36012KT CAVOK
Forecast period: 0600 UTC 28 October 2020 to 1200 UTC 29 October 2020
Forecast type: FROM: standard forecast or significant change
Winds: from the N (360 degrees) at 14 MPH (12 knots; 6.2 m/s)
Visibility: 6 or more miles (10+ km)
Ceiling: unknown
Clouds: missing
Weather: NSW  (no significant weather)

 MAPA DO AEROPORTO

 INFORMAÇÕES DA PISTA
Pista 17 Tamanho da pista 11161 ft Largura da pista 148 ft
Elevação da pista 610 ft Ranhura da pista 0 ft Proa da pista 171
Pista 35 Tamanho da pista 11161 ft Largura da pista 148 ft
Elevação da pista 654 ft Ranhura da pista 0 ft Proa da pista 351

 FREQUÊNCIAS DO AEROPORTO
Tipo APP Nome RADAR Frequência 119.35 MHZ
Tipo EMR Nome FIRE Frequência 121.9 MHZ
Tipo RDO Nome RDO Frequência 585.9 MHZ
Tipo TWR Nome TWR Frequência 118.3 MHZ

 AUXÍLIOS DE NAVEGAÇÃO PRÓXIMOS AO AEROPORTO
Tipo VOR-DME Nome Aswan Frequência 112300 KHZ